Sandford, Indiana
Current Conditions -  °F | °C
As of 9:53 AM on Monday 22 Dec 2014 (Local Time) from KHUF Reporting Station
Light Rain Light Rain  
Wind Chill: 30°   Ceiling: 2600
Heat Index: 36°   Visibility: 9mi
Dew Point: 31°   Wind: 7mph
Humidity: 82%   Direction: 130°SE
Pressure: 29.92"   Gusts: NA
Location:  39.5107°N, 87.4772°W
Report Text: KHUF 221453Z 13006KT 9SM -RA BKN026 OVC032 02/M01 A2992 RMK AO2 RAB39 SLP137 P0000 60000 T00221006 55007
Loading
Personal Weather Stations






























Interactive Weather Map New forecast layout! Learn more

10-Day Weather Forecast

Advertisements
Track Severe Weather on mobile